Balch Springs, Texas
Current Conditions -  °F | °C
As of 3:15 AM on Friday 24 Oct 2014 (Local Time) from KHQZ Reporting Station
Clear Clear  
Wind Chill: 57°   Ceiling: Unl
Heat Index: 57°   Visibility: 10mi
Dew Point: 55°   Wind: 0mph
Humidity: 91%   Direction: NA
Pressure: 30.12"   Gusts: NA
Location:  32.73°N, 96.62°W
Report Text: KHQZ 240815Z AUTO 00000KT 10SM CLR 14/13 A3012 RMK AO1 T01410127
Loading
Personal Weather Stations






























Interactive Weather Map
Tropical Storm Tracking
New forecast layout! Learn more

10-Day Weather Forecast

Advertisements
Track Severe Weather on mobile